Pagina principale
METAR-TAF:

METAR-TAF

Aeroporti :

Demopolis, Alabama, Stati Uniti

latitudine: 32-27-50N, longitudine: 087-57-15W, altezza: 34 m

Osservazione

Il bollettino è stato emesso 18 minuti fa, alle 00:55 UTC
Vento 5 kt da sud
Temperature 23°C
Umidità 78%
Pressione 1013 hPa
Visibilità: 16.1 km
Nubi sparse ad un'altezza di 3900 ft
Nuvoloso ad un'altezza di 6500 ft
Cielo coperto ad un'altezza di 8000 ft
pioggia debole

METAR: KDYA 240055Z AUTO 18005KT 10SM -RA SCT039 BKN065 OVC080 23/19 A2990 RMK AO2 T02250192

Ora: 19:13 (01:13 UTC)


TAF: mancante

Osservazioni e previsioni meteorologiche di più di 4000 aeroporti (messaggi METAR e TAF).

Le stazioni disponibili sono rappresentate dai dischi gialli e rossi sulla carta.

Puntare il mouse per vedere il nome della stazione.

Clicca sopra per visualizzare le osservazioni e previsioni meteorologiche.

Per cambiare la mappa : fare clic sui pulsanti verdi con una croce nera per ingrandire, il pulsante verde con un trattino per diminuire, o sulla freccia verde per le mappe adiacenti.


METAR-TAF: